Horizon II — 3FHB4 — position and weather

sailwx.info

Track history (hours):
 
Tides and Currents Weather Stations Pressure Air Temp Water Temp Dewpoint Dewpoint Depression Visibility Wind Speed Wind Dir Waves Ship Positions

Horizon II

Last reported at 2017-Oct-06 02:56 UTC. Time now 2017-Oct-20 19:56 UTC.
Position N 36°20' E 014°48'.
Warning: this ship's position is 14 days out of date.

Length 255 m; draft 10.7 m.

Type: Cargo ship. MMSI: 357568000.

Date/timePositionNaut miles runAvg speedWind from/ knotsBaromVisibWave heightAir tempDewpointWater temp
2017-Oct-06 02:56N 36°20' E 014°48'712.0
2017-Oct-06 02:23N 36°22' E 014°41'511.9
2017-Oct-06 02:00N 36°24' E 014°35'611.9
2017-Oct-06 01:30N 36°26' E 014°28'612.0
2017-Oct-06 00:59N 36°28' E 014°21'612.1
2017-Oct-06 00:30N 36°30' E 014°14'612.1
2017-Oct-06 00:00N 36°32' E 014°07'  
2017-Oct-01 23:26N 36°28' W 008°51'511.8
2017-Oct-01 23:00N 36°29' W 008°57'611.8
2017-Oct-01 22:30N 36°31' W 009°04'611.7
2017-Oct-01 22:00N 36°32' W 009°11'611.2
2017-Oct-01 21:30N 36°34' W 009°18'611.8
2017-Oct-01 21:00N 36°38' W 009°23'711.9
2017-Oct-01 20:28N 36°43' W 009°28'4511.8
2017-Oct-01 16:39N 37°26' W 009°44'212.2
2017-Oct-01 16:29N 37°28' W 009°45'612.1
2017-Oct-01 16:00N 37°34' W 009°46'611.5
2017-Oct-01 15:30N 37°39' W 009°48'611.9
2017-Oct-01 15:00N 37°45' W 009°50'712.3
2017-Oct-01 14:28N 37°51' W 009°52'612.6
2017-Oct-01 13:59N 37°57' W 009°54'612.4
2017-Oct-01 13:30N 38°03' W 009°55'612.3
2017-Oct-01 13:00N 38°09' W 009°57'812.4
2017-Oct-01 12:23N 38°17' W 009°59'612.5
2017-Oct-01 11:55N 38°22' W 010°01'712.1
2017-Oct-01 11:20N 38°29' W 010°03'512.1
2017-Oct-01 10:54N 38°34' W 010°05'612.6
2017-Oct-01 10:27N 38°40' W 010°06'612.9
2017-Oct-01 10:00N 38°45' W 010°06'1012.7
2017-Oct-01 09:15N 38°55' W 010°06'312.4
2017-Oct-01 09:00N 38°58' W 010°06'612.1
2017-Oct-01 08:30N 39°04' W 010°06'611.9
2017-Oct-01 08:00N 39°10' W 010°06'611.9
2017-Oct-01 07:29N 39°16' W 010°06'612.2
2017-Oct-01 07:00N 39°22' W 010°06'  
2017-Sep-29 01:14N 48°46' W 005°53'311.4
2017-Sep-29 00:58N 48°49' W 005°51'511.5
2017-Sep-29 00:30N 48°53' W 005°47'510.9
2017-Sep-29 00:00N 48°57' W 005°41'511.0
2017-Sep-28 23:30N 48°60' W 005°34'610.9
2017-Sep-28 22:55N 49°03' W 005°25'410.6
2017-Sep-28 22:30N 49°05' W 005°19'1110.3
2017-Sep-28 21:28N 49°11' W 005°06'910.3
2017-Sep-28 20:35N 49°16' W 004°54'4311.4
2017-Sep-28 16:49N 49°37' W 003°56'712.3
2017-Sep-28 16:16N 49°40' W 003°47'412.1
2017-Sep-28 15:57N 49°42' W 003°43'712.0
2017-Sep-28 15:20N 49°46' W 003°32'511.7
2017-Sep-28 14:55N 49°48' W 003°26'511.5
2017-Sep-28 14:30N 49°50' W 003°19'611.3
2017-Sep-28 14:00N 49°53' W 003°12'611.1
2017-Sep-28 13:30N 49°56' W 003°04'510.8
2017-Sep-28 13:00N 49°58' W 002°57'610.7
2017-Sep-28 12:29N 49°60' W 002°48'3811.0
2017-Sep-28 09:03N 50°10' W 001°51'111.9
2017-Sep-28 08:58N 50°10' W 001°50'612.3
2017-Sep-28 08:30N 50°11' W 001°41'612.6
2017-Sep-28 08:01N 50°13' W 001°32'612.8
2017-Sep-28 07:30N 50°15' W 001°22'3712.4
2017-Sep-28 04:33N 50°24' W 000°27'111.4
2017-Sep-28 04:30N 50°24' W 000°26'611.3
2017-Sep-28 04:00N 50°26' W 000°18'511.0
2017-Sep-28 03:30N 50°27' W 000°09'510.7
2017-Sep-28 03:00N 50°29' W 000°01'510.6
2017-Sep-28 02:30N 50°30' E 000°07'510.5
2017-Sep-28 02:00N 50°32' E 000°15'510.4
2017-Sep-28 01:30N 50°33' E 000°22'510.5
2017-Sep-28 00:59N 50°35' E 000°31'510.7
2017-Sep-28 00:30N 50°37' E 000°38'611.0
2017-Sep-28 00:00N 50°39' E 000°46'611.4
2017-Sep-27 23:30N 50°42' E 000°54'611.5
2017-Sep-27 23:00N 50°46' E 000°60'612.3
2017-Sep-27 22:30N 50°50' E 001°08'612.6
2017-Sep-27 22:00N 50°54' E 001°16'612.8
2017-Sep-27 21:30N 50°58' E 001°23'612.5
2017-Sep-27 21:00N 51°03' E 001°29'612.0
2017-Sep-27 20:30N 51°07' E 001°36'611.6
2017-Sep-27 20:00N 51°12' E 001°42'611.2
2017-Sep-27 19:30N 51°16' E 001°48'510.9
2017-Sep-27 19:00N 51°21' E 001°52'510.7
2017-Sep-27 18:30N 51°25' E 001°56'510.7
2017-Sep-27 18:00N 51°30' E 002°02'510.8
2017-Sep-27 17:30N 51°34' E 002°08'611.0
2017-Sep-27 17:00N 51°38' E 002°13'611.1
2017-Sep-27 16:28N 51°42' E 002°20'18511.9
2017-Sep-27 00:58N 54°17' E 005°08'511.8
2017-Sep-27 00:30N 54°22' E 005°11'611.6
2017-Sep-27 00:00N 54°28' E 005°15'  
Track history (hours):
 
Tides and Currents Weather Stations Pressure Air Temp Water Temp Dewpoint Dewpoint Depression Visibility Wind Speed Wind Dir Waves Ship Positions

Horizon II

Last reported at 2017-Oct-06 02:56 UTC. Time now 2017-Oct-20 19:56 UTC.
Position N 36°20' E 014°48'.
Warning: this ship's position is 14 days out of date.

Length 255 m; draft 10.7 m.

Type: Cargo ship. MMSI: 357568000.

Date/timePositionNaut miles runAvg speedWind from/ knotsBaromVisibWave heightAir tempDewpointWater temp
2017-Oct-06 02:56N 36°20' E 014°48'712.0
2017-Oct-06 02:23N 36°22' E 014°41'511.9
2017-Oct-06 02:00N 36°24' E 014°35'611.9
2017-Oct-06 01:30N 36°26' E 014°28'612.0
2017-Oct-06 00:59N 36°28' E 014°21'612.1
2017-Oct-06 00:30N 36°30' E 014°14'612.1
2017-Oct-06 00:00N 36°32' E 014°07'  
2017-Oct-01 23:26N 36°28' W 008°51'511.8
2017-Oct-01 23:00N 36°29' W 008°57'611.8
2017-Oct-01 22:30N 36°31' W 009°04'611.7
2017-Oct-01 22:00N 36°32' W 009°11'611.2
2017-Oct-01 21:30N 36°34' W 009°18'611.8
2017-Oct-01 21:00N 36°38' W 009°23'711.9
2017-Oct-01 20:28N 36°43' W 009°28'4511.8
2017-Oct-01 16:39N 37°26' W 009°44'212.2
2017-Oct-01 16:29N 37°28' W 009°45'612.1
2017-Oct-01 16:00N 37°34' W 009°46'611.5
2017-Oct-01 15:30N 37°39' W 009°48'611.9
2017-Oct-01 15:00N 37°45' W 009°50'712.3
2017-Oct-01 14:28N 37°51' W 009°52'612.6
2017-Oct-01 13:59N 37°57' W 009°54'612.4
2017-Oct-01 13:30N 38°03' W 009°55'612.3
2017-Oct-01 13:00N 38°09' W 009°57'812.4
2017-Oct-01 12:23N 38°17' W 009°59'612.5
2017-Oct-01 11:55N 38°22' W 010°01'712.1
2017-Oct-01 11:20N 38°29' W 010°03'512.1
2017-Oct-01 10:54N 38°34' W 010°05'612.6
2017-Oct-01 10:27N 38°40' W 010°06'612.9
2017-Oct-01 10:00N 38°45' W 010°06'1012.7
2017-Oct-01 09:15N 38°55' W 010°06'312.4
2017-Oct-01 09:00N 38°58' W 010°06'612.1
2017-Oct-01 08:30N 39°04' W 010°06'611.9
2017-Oct-01 08:00N 39°10' W 010°06'611.9
2017-Oct-01 07:29N 39°16' W 010°06'612.2
2017-Oct-01 07:00N 39°22' W 010°06'  
2017-Sep-29 01:14N 48°46' W 005°53'311.4
2017-Sep-29 00:58N 48°49' W 005°51'511.5
2017-Sep-29 00:30N 48°53' W 005°47'510.9
2017-Sep-29 00:00N 48°57' W 005°41'511.0
2017-Sep-28 23:30N 48°60' W 005°34'610.9
2017-Sep-28 22:55N 49°03' W 005°25'410.6
2017-Sep-28 22:30N 49°05' W 005°19'1110.3
2017-Sep-28 21:28N 49°11' W 005°06'910.3
2017-Sep-28 20:35N 49°16' W 004°54'4311.4
2017-Sep-28 16:49N 49°37' W 003°56'712.3
2017-Sep-28 16:16N 49°40' W 003°47'412.1
2017-Sep-28 15:57N 49°42' W 003°43'712.0
2017-Sep-28 15:20N 49°46' W 003°32'511.7
2017-Sep-28 14:55N 49°48' W 003°26'511.5
2017-Sep-28 14:30N 49°50' W 003°19'611.3
2017-Sep-28 14:00N 49°53' W 003°12'611.1
2017-Sep-28 13:30N 49°56' W 003°04'510.8
2017-Sep-28 13:00N 49°58' W 002°57'610.7
2017-Sep-28 12:29N 49°60' W 002°48'3811.0
2017-Sep-28 09:03N 50°10' W 001°51'111.9
2017-Sep-28 08:58N 50°10' W 001°50'612.3
2017-Sep-28 08:30N 50°11' W 001°41'612.6
2017-Sep-28 08:01N 50°13' W 001°32'612.8
2017-Sep-28 07:30N 50°15' W 001°22'3712.4
2017-Sep-28 04:33N 50°24' W 000°27'111.4
2017-Sep-28 04:30N 50°24' W 000°26'611.3
2017-Sep-28 04:00N 50°26' W 000°18'511.0
2017-Sep-28 03:30N 50°27' W 000°09'510.7
2017-Sep-28 03:00N 50°29' W 000°01'510.6
2017-Sep-28 02:30N 50°30' E 000°07'510.5
2017-Sep-28 02:00N 50°32' E 000°15'510.4
2017-Sep-28 01:30N 50°33' E 000°22'510.5
2017-Sep-28 00:59N 50°35' E 000°31'510.7
2017-Sep-28 00:30N 50°37' E 000°38'611.0
2017-Sep-28 00:00N 50°39' E 000°46'611.4
2017-Sep-27 23:30N 50°42' E 000°54'611.5
2017-Sep-27 23:00N 50°46' E 000°60'612.3
2017-Sep-27 22:30N 50°50' E 001°08'612.6
2017-Sep-27 22:00N 50°54' E 001°16'612.8
2017-Sep-27 21:30N 50°58' E 001°23'612.5
2017-Sep-27 21:00N 51°03' E 001°29'612.0
2017-Sep-27 20:30N 51°07' E 001°36'611.6
2017-Sep-27 20:00N 51°12' E 001°42'611.2
2017-Sep-27 19:30N 51°16' E 001°48'510.9
2017-Sep-27 19:00N 51°21' E 001°52'510.7
2017-Sep-27 18:30N 51°25' E 001°56'510.7
2017-Sep-27 18:00N 51°30' E 002°02'510.8
2017-Sep-27 17:30N 51°34' E 002°08'611.0
2017-Sep-27 17:00N 51°38' E 002°13'611.1
2017-Sep-27 16:28N 51°42' E 002°20'18511.9
2017-Sep-27 00:58N 54°17' E 005°08'511.8
2017-Sep-27 00:30N 54°22' E 005°11'611.6
2017-Sep-27 00:00N 54°28' E 005°15'  

Dump ship's entire track history